sensor_id;sensor_type;location;lat;lon;timestamp;temperature;humidity
29663;DHT22;16578;53.266;7.920;2023-12-04T00:00:24;3.40;83.10
29663;DHT22;16578;53.266;7.920;2023-12-04T00:02:50;3.40;83.10
29663;DHT22;16578;53.266;7.920;2023-12-04T00:05:15;3.40;83.10
29663;DHT22;16578;53.266;7.920;2023-12-04T00:07:41;3.40;83.20
29663;DHT22;16578;53.266;7.920;2023-12-04T00:10:07;3.40;83.20
29663;DHT22;16578;53.266;7.920;2023-12-04T00:12:33;3.30;83.00
29663;DHT22;16578;53.266;7.920;2023-12-04T00:14:59;3.30;83.10
29663;DHT22;16578;53.266;7.920;2023-12-04T00:17:24;3.30;83.10
29663;DHT22;16578;53.266;7.920;2023-12-04T00:19:50;3.30;83.20
29663;DHT22;16578;53.266;7.920;2023-12-04T00:22:16;3.40;83.30
29663;DHT22;16578;53.266;7.920;2023-12-04T00:24:41;3.40;83.30
29663;DHT22;16578;53.266;7.920;2023-12-04T00:27:08;3.40;83.20
29663;DHT22;16578;53.266;7.920;2023-12-04T00:29:33;3.30;83.10
29663;DHT22;16578;53.266;7.920;2023-12-04T00:31:59;3.30;83.00
29663;DHT22;16578;53.266;7.920;2023-12-04T00:34:24;3.30;83.00
29663;DHT22;16578;53.266;7.920;2023-12-04T00:36:50;3.30;83.00
29663;DHT22;16578;53.266;7.920;2023-12-04T00:39:16;3.30;83.10
29663;DHT22;16578;53.266;7.920;2023-12-04T00:41:41;3.40;83.30
29663;DHT22;16578;53.266;7.920;2023-12-04T00:44:07;3.30;83.30
29663;DHT22;16578;53.266;7.920;2023-12-04T00:46:32;3.40;83.30
29663;DHT22;16578;53.266;7.920;2023-12-04T00:48:58;3.40;83.30
29663;DHT22;16578;53.266;7.920;2023-12-04T00:51:24;3.40;83.40
29663;DHT22;16578;53.266;7.920;2023-12-04T00:53:49;3.30;83.20
29663;DHT22;16578;53.266;7.920;2023-12-04T00:56:15;3.40;83.20
29663;DHT22;16578;53.266;7.920;2023-12-04T00:58:40;3.40;83.20
29663;DHT22;16578;53.266;7.920;2023-12-04T01:01:06;3.40;84.00
29663;DHT22;16578;53.266;7.920;2023-12-04T01:03:32;3.30;83.10
29663;DHT22;16578;53.266;7.920;2023-12-04T01:05:59;3.40;83.10
29663;DHT22;16578;53.266;7.920;2023-12-04T01:08:24;3.40;83.10
29663;DHT22;16578;53.266;7.920;2023-12-04T01:10:50;3.30;83.00
29663;DHT22;16578;53.266;7.920;2023-12-04T01:13:16;3.40;83.10
29663;DHT22;16578;53.266;7.920;2023-12-04T01:15:41;3.30;83.10
29663;DHT22;16578;53.266;7.920;2023-12-04T01:18:08;3.40;83.10
29663;DHT22;16578;53.266;7.920;2023-12-04T01:20:34;3.30;83.00
29663;DHT22;16578;53.266;7.920;2023-12-04T01:22:59;3.30;83.00
29663;DHT22;16578;53.266;7.920;2023-12-04T01:25:25;3.30;83.00
29663;DHT22;16578;53.266;7.920;2023-12-04T01:27:51;3.30;83.00
29663;DHT22;16578;53.266;7.920;2023-12-04T01:30:16;3.30;83.00
29663;DHT22;16578;53.266;7.920;2023-12-04T01:32:42;3.40;83.00
29663;DHT22;16578;53.266;7.920;2023-12-04T01:35:08;3.30;83.00
29663;DHT22;16578;53.266;7.920;2023-12-04T01:37:33;3.30;83.00
29663;DHT22;16578;53.266;7.920;2023-12-04T01:39:59;3.30;83.00
29663;DHT22;16578;53.266;7.920;2023-12-04T01:42:24;3.30;83.90
29663;DHT22;16578;53.266;7.920;2023-12-04T01:44:50;3.30;83.10
29663;DHT22;16578;53.266;7.920;2023-12-04T01:47:17;3.30;83.10
29663;DHT22;16578;53.266;7.920;2023-12-04T01:49:43;3.30;83.10
29663;DHT22;16578;53.266;7.920;2023-12-04T01:52:09;3.30;83.10
29663;DHT22;16578;53.266;7.920;2023-12-04T01:54:35;3.30;83.20
29663;DHT22;16578;53.266;7.920;2023-12-04T01:57:02;3.30;83.20
29663;DHT22;16578;53.266;7.920;2023-12-04T01:59:28;3.30;83.20
29663;DHT22;16578;53.266;7.920;2023-12-04T02:01:54;3.30;83.20
29663;DHT22;16578;53.266;7.920;2023-12-04T02:04:21;3.30;83.20
29663;DHT22;16578;53.266;7.920;2023-12-04T02:06:46;3.30;83.30
29663;DHT22;16578;53.266;7.920;2023-12-04T02:09:12;3.30;83.40
29663;DHT22;16578;53.266;7.920;2023-12-04T02:11:39;3.30;83.40
29663;DHT22;16578;53.266;7.920;2023-12-04T02:14:06;3.30;83.40
29663;DHT22;16578;53.266;7.920;2023-12-04T02:16:32;3.30;83.30
29663;DHT22;16578;53.266;7.920;2023-12-04T02:19:01;3.30;83.40
29663;DHT22;16578;53.266;7.920;2023-12-04T02:21:27;3.30;83.40
29663;DHT22;16578;53.266;7.920;2023-12-04T02:23:53;3.30;83.50
29663;DHT22;16578;53.266;7.920;2023-12-04T02:26:23;3.30;83.40
29663;DHT22;16578;53.266;7.920;2023-12-04T02:28:57;3.30;83.50
29663;DHT22;16578;53.266;7.920;2023-12-04T02:31:24;3.30;83.60
29663;DHT22;16578;53.266;7.920;2023-12-04T02:33:52;3.30;83.70
29663;DHT22;16578;53.266;7.920;2023-12-04T02:36:21;3.30;83.70
29663;DHT22;16578;53.266;7.920;2023-12-04T02:38:48;3.40;83.80
29663;DHT22;16578;53.266;7.920;2023-12-04T02:41:14;3.30;83.70
29663;DHT22;16578;53.266;7.920;2023-12-04T02:43:39;3.40;83.80
29663;DHT22;16578;53.266;7.920;2023-12-04T02:46:05;3.40;83.80
29663;DHT22;16578;53.266;7.920;2023-12-04T02:48:31;3.40;83.80
29663;DHT22;16578;53.266;7.920;2023-12-04T02:50:56;3.40;83.80
29663;DHT22;16578;53.266;7.920;2023-12-04T02:53:22;3.40;83.90
29663;DHT22;16578;53.266;7.920;2023-12-04T02:55:47;3.40;83.90
29663;DHT22;16578;53.266;7.920;2023-12-04T02:58:13;3.40;83.90
29663;DHT22;16578;53.266;7.920;2023-12-04T03:00:38;3.30;83.90
29663;DHT22;16578;53.266;7.920;2023-12-04T03:03:04;3.40;84.00
29663;DHT22;16578;53.266;7.920;2023-12-04T03:05:29;3.30;84.00
29663;DHT22;16578;53.266;7.920;2023-12-04T03:07:55;3.40;84.10
29663;DHT22;16578;53.266;7.920;2023-12-04T03:10:20;3.40;84.10
29663;DHT22;16578;53.266;7.920;2023-12-04T03:12:46;3.30;84.00
29663;DHT22;16578;53.266;7.920;2023-12-04T03:15:12;3.30;84.10
29663;DHT22;16578;53.266;7.920;2023-12-04T03:17:39;3.40;84.20
29663;DHT22;16578;53.266;7.920;2023-12-04T03:20:04;3.30;84.20
29663;DHT22;16578;53.266;7.920;2023-12-04T03:22:34;3.30;84.20
29663;DHT22;16578;53.266;7.920;2023-12-04T03:25:00;3.30;84.20
29663;DHT22;16578;53.266;7.920;2023-12-04T03:27:25;3.40;84.30
29663;DHT22;16578;53.266;7.920;2023-12-04T03:29:51;3.40;84.30
29663;DHT22;16578;53.266;7.920;2023-12-04T03:32:16;3.40;84.30
29663;DHT22;16578;53.266;7.920;2023-12-04T03:34:42;3.40;84.30
29663;DHT22;16578;53.266;7.920;2023-12-04T03:37:07;3.40;84.40
29663;DHT22;16578;53.266;7.920;2023-12-04T03:39:33;3.40;84.40
29663;DHT22;16578;53.266;7.920;2023-12-04T03:41:58;3.40;84.40
29663;DHT22;16578;53.266;7.920;2023-12-04T03:44:25;3.40;84.50
29663;DHT22;16578;53.266;7.920;2023-12-04T03:46:50;3.40;84.50
29663;DHT22;16578;53.266;7.920;2023-12-04T03:49:17;3.30;84.40
29663;DHT22;16578;53.266;7.920;2023-12-04T03:51:42;3.30;84.40
29663;DHT22;16578;53.266;7.920;2023-12-04T03:54:08;3.40;84.60
29663;DHT22;16578;53.266;7.920;2023-12-04T03:56:34;3.40;84.50
29663;DHT22;16578;53.266;7.920;2023-12-04T03:58:59;3.40;84.70
29663;DHT22;16578;53.266;7.920;2023-12-04T04:01:25;3.40;84.70
29663;DHT22;16578;53.266;7.920;2023-12-04T04:03:50;3.40;84.60
29663;DHT22;16578;53.266;7.920;2023-12-04T04:06:16;3.40;84.70
29663;DHT22;16578;53.266;7.920;2023-12-04T04:08:42;3.40;84.60
29663;DHT22;16578;53.266;7.920;2023-12-04T04:11:08;3.40;84.70
29663;DHT22;16578;53.266;7.920;2023-12-04T04:13:33;3.40;84.60
29663;DHT22;16578;53.266;7.920;2023-12-04T04:15:59;3.40;84.70
29663;DHT22;16578;53.266;7.920;2023-12-04T04:18:24;3.40;84.80
29663;DHT22;16578;53.266;7.920;2023-12-04T04:20:50;3.40;84.80
29663;DHT22;16578;53.266;7.920;2023-12-04T04:23:15;3.40;84.90
29663;DHT22;16578;53.266;7.920;2023-12-04T04:25:41;3.40;84.80
29663;DHT22;16578;53.266;7.920;2023-12-04T04:28:06;3.40;85.70
29663;DHT22;16578;53.266;7.920;2023-12-04T04:30:32;3.40;84.90
29663;DHT22;16578;53.266;7.920;2023-12-04T04:32:58;3.40;85.00
29663;DHT22;16578;53.266;7.920;2023-12-04T04:35:23;3.40;84.90
29663;DHT22;16578;53.266;7.920;2023-12-04T04:37:50;3.40;84.90
29663;DHT22;16578;53.266;7.920;2023-12-04T04:40:15;3.40;85.00
29663;DHT22;16578;53.266;7.920;2023-12-04T04:42:41;3.40;85.00
29663;DHT22;16578;53.266;7.920;2023-12-04T04:45:07;3.40;85.00
29663;DHT22;16578;53.266;7.920;2023-12-04T04:47:33;3.40;85.10
29663;DHT22;16578;53.266;7.920;2023-12-04T04:49:58;3.40;85.10
29663;DHT22;16578;53.266;7.920;2023-12-04T04:52:24;3.40;85.10
29663;DHT22;16578;53.266;7.920;2023-12-04T04:54:50;3.40;85.10
29663;DHT22;16578;53.266;7.920;2023-12-04T04:57:15;3.40;85.10
29663;DHT22;16578;53.266;7.920;2023-12-04T04:59:41;3.40;85.20
29663;DHT22;16578;53.266;7.920;2023-12-04T05:02:06;3.40;85.20
29663;DHT22;16578;53.266;7.920;2023-12-04T05:04:32;3.40;85.30
29663;DHT22;16578;53.266;7.920;2023-12-04T05:06:57;3.40;85.20
29663;DHT22;16578;53.266;7.920;2023-12-04T05:09:23;3.40;85.20
29663;DHT22;16578;53.266;7.920;2023-12-04T05:11:49;3.40;85.30
29663;DHT22;16578;53.266;7.920;2023-12-04T05:14:15;3.40;85.30
29663;DHT22;16578;53.266;7.920;2023-12-04T05:16:40;3.40;85.30
29663;DHT22;16578;53.266;7.920;2023-12-04T05:19:06;3.50;85.40
29663;DHT22;16578;53.266;7.920;2023-12-04T05:21:31;3.50;85.40
29663;DHT22;16578;53.266;7.920;2023-12-04T05:23:57;3.50;85.40
29663;DHT22;16578;53.266;7.920;2023-12-04T05:26:22;3.50;85.40
29663;DHT22;16578;53.266;7.920;2023-12-04T05:28:48;3.50;85.40
29663;DHT22;16578;53.266;7.920;2023-12-04T05:31:14;3.50;85.50
29663;DHT22;16578;53.266;7.920;2023-12-04T05:33:39;3.50;85.40
29663;DHT22;16578;53.266;7.920;2023-12-04T05:36:05;3.50;85.40
29663;DHT22;16578;53.266;7.920;2023-12-04T05:38:32;3.50;85.40
29663;DHT22;16578;53.266;7.920;2023-12-04T05:40:57;3.50;85.50
29663;DHT22;16578;53.266;7.920;2023-12-04T05:43:23;3.50;85.50
29663;DHT22;16578;53.266;7.920;2023-12-04T05:45:49;3.50;85.50
29663;DHT22;16578;53.266;7.920;2023-12-04T05:48:14;3.50;86.30
29663;DHT22;16578;53.266;7.920;2023-12-04T05:50:40;3.50;85.50
29663;DHT22;16578;53.266;7.920;2023-12-04T05:53:06;3.50;85.50
29663;DHT22;16578;53.266;7.920;2023-12-04T05:55:32;3.50;85.50
29663;DHT22;16578;53.266;7.920;2023-12-04T05:57:58;3.50;85.60
29663;DHT22;16578;53.266;7.920;2023-12-04T06:00:23;3.50;86.50
29663;DHT22;16578;53.266;7.920;2023-12-04T06:02:49;3.60;85.70
29663;DHT22;16578;53.266;7.920;2023-12-04T06:05:14;3.60;85.60
29663;DHT22;16578;53.266;7.920;2023-12-04T06:07:40;3.60;85.60
29663;DHT22;16578;53.266;7.920;2023-12-04T06:10:07;3.60;85.70
29663;DHT22;16578;53.266;7.920;2023-12-04T06:12:33;3.60;85.60
29663;DHT22;16578;53.266;7.920;2023-12-04T06:14:59;3.60;85.60
29663;DHT22;16578;53.266;7.920;2023-12-04T06:17:26;3.60;85.60
29663;DHT22;16578;53.266;7.920;2023-12-04T06:19:53;3.60;85.60
29663;DHT22;16578;53.266;7.920;2023-12-04T06:22:19;3.60;85.60
29663;DHT22;16578;53.266;7.920;2023-12-04T06:24:47;3.60;85.60
29663;DHT22;16578;53.266;7.920;2023-12-04T06:27:15;3.60;85.50
29663;DHT22;16578;53.266;7.920;2023-12-04T06:29:41;3.60;85.50
29663;DHT22;16578;53.266;7.920;2023-12-04T06:32:08;3.70;85.70
29663;DHT22;16578;53.266;7.920;2023-12-04T06:34:34;3.70;85.70
29663;DHT22;16578;53.266;7.920;2023-12-04T06:37:01;3.70;85.70
29663;DHT22;16578;53.266;7.920;2023-12-04T06:39:32;3.70;85.70
29663;DHT22;16578;53.266;7.920;2023-12-04T06:41:58;3.70;85.60
29663;DHT22;16578;53.266;7.920;2023-12-04T06:44:24;3.70;85.60
29663;DHT22;16578;53.266;7.920;2023-12-04T06:46:51;3.70;85.60
29663;DHT22;16578;53.266;7.920;2023-12-04T06:49:18;3.70;85.60
29663;DHT22;16578;53.266;7.920;2023-12-04T06:51:43;3.70;85.60
29663;DHT22;16578;53.266;7.920;2023-12-04T06:54:09;3.70;85.60
29663;DHT22;16578;53.266;7.920;2023-12-04T06:56:35;3.70;85.60
29663;DHT22;16578;53.266;7.920;2023-12-04T06:59:00;3.70;85.60
29663;DHT22;16578;53.266;7.920;2023-12-04T07:01:26;3.70;85.60
29663;DHT22;16578;53.266;7.920;2023-12-04T07:03:51;3.70;85.60
29663;DHT22;16578;53.266;7.920;2023-12-04T07:06:17;3.70;85.60
29663;DHT22;16578;53.266;7.920;2023-12-04T07:08:43;3.80;85.60
29663;DHT22;16578;53.266;7.920;2023-12-04T07:11:09;3.80;85.60
29663;DHT22;16578;53.266;7.920;2023-12-04T07:13:34;3.80;85.60
29663;DHT22;16578;53.266;7.920;2023-12-04T07:16:00;3.80;85.60
29663;DHT22;16578;53.266;7.920;2023-12-04T07:18:26;3.80;85.60
29663;DHT22;16578;53.266;7.920;2023-12-04T07:20:51;3.80;85.60
29663;DHT22;16578;53.266;7.920;2023-12-04T07:23:17;3.80;85.60
29663;DHT22;16578;53.266;7.920;2023-12-04T07:25:42;3.80;85.60
29663;DHT22;16578;53.266;7.920;2023-12-04T07:28:08;3.80;85.60
29663;DHT22;16578;53.266;7.920;2023-12-04T07:30:34;3.80;85.50
29663;DHT22;16578;53.266;7.920;2023-12-04T07:32:59;3.80;85.70
29663;DHT22;16578;53.266;7.920;2023-12-04T07:35:26;3.90;85.60
29663;DHT22;16578;53.266;7.920;2023-12-04T07:37:52;3.80;85.50
29663;DHT22;16578;53.266;7.920;2023-12-04T07:40:18;3.90;85.60
29663;DHT22;16578;53.266;7.920;2023-12-04T07:42:43;3.90;85.50
29663;DHT22;16578;53.266;7.920;2023-12-04T07:45:10;3.90;85.50
29663;DHT22;16578;53.266;7.920;2023-12-04T07:47:36;3.90;85.40
29663;DHT22;16578;53.266;7.920;2023-12-04T07:50:02;3.90;85.40
29663;DHT22;16578;53.266;7.920;2023-12-04T07:52:27;3.90;86.20
29663;DHT22;16578;53.266;7.920;2023-12-04T07:54:53;3.90;85.30
29663;DHT22;16578;53.266;7.920;2023-12-04T07:57:19;3.90;85.30
29663;DHT22;16578;53.266;7.920;2023-12-04T07:59:44;3.90;85.30
29663;DHT22;16578;53.266;7.920;2023-12-04T08:02:10;3.90;85.20
29663;DHT22;16578;53.266;7.920;2023-12-04T08:04:35;3.90;85.20
29663;DHT22;16578;53.266;7.920;2023-12-04T08:07:01;3.90;85.20
29663;DHT22;16578;53.266;7.920;2023-12-04T08:09:27;3.90;85.20
29663;DHT22;16578;53.266;7.920;2023-12-04T08:11:54;4.00;85.20
29663;DHT22;16578;53.266;7.920;2023-12-04T08:14:19;4.00;85.20
29663;DHT22;16578;53.266;7.920;2023-12-04T08:16:45;4.00;85.10
29663;DHT22;16578;53.266;7.920;2023-12-04T08:19:11;3.90;85.00
29663;DHT22;16578;53.266;7.920;2023-12-04T08:21:37;4.00;85.00
29663;DHT22;16578;53.266;7.920;2023-12-04T08:24:03;3.90;84.80
29663;DHT22;16578;53.266;7.920;2023-12-04T08:26:28;4.00;84.80
29663;DHT22;16578;53.266;7.920;2023-12-04T08:28:54;3.90;84.80
29663;DHT22;16578;53.266;7.920;2023-12-04T08:31:19;3.90;84.70
29663;DHT22;16578;53.266;7.920;2023-12-04T08:33:45;3.90;84.80
29663;DHT22;16578;53.266;7.920;2023-12-04T08:36:11;3.90;84.80
29663;DHT22;16578;53.266;7.920;2023-12-04T08:38:37;3.90;84.80
29663;DHT22;16578;53.266;7.920;2023-12-04T08:41:03;3.90;84.80
29663;DHT22;16578;53.266;7.920;2023-12-04T08:43:29;3.90;84.70
29663;DHT22;16578;53.266;7.920;2023-12-04T08:45:55;3.90;84.70
29663;DHT22;16578;53.266;7.920;2023-12-04T08:48:21;3.90;84.60
29663;DHT22;16578;53.266;7.920;2023-12-04T08:50:47;3.90;84.60
29663;DHT22;16578;53.266;7.920;2023-12-04T08:53:13;3.90;84.60
29663;DHT22;16578;53.266;7.920;2023-12-04T08:55:38;3.90;84.60
29663;DHT22;16578;53.266;7.920;2023-12-04T08:58:04;3.90;84.60
29663;DHT22;16578;53.266;7.920;2023-12-04T09:00:30;4.00;84.60
29663;DHT22;16578;53.266;7.920;2023-12-04T09:02:55;4.00;84.70
29663;DHT22;16578;53.266;7.920;2023-12-04T09:05:21;4.00;84.60
29663;DHT22;16578;53.266;7.920;2023-12-04T09:07:47;4.00;84.50
29663;DHT22;16578;53.266;7.920;2023-12-04T09:10:13;4.00;84.50
29663;DHT22;16578;53.266;7.920;2023-12-04T09:12:39;4.00;84.50
29663;DHT22;16578;53.266;7.920;2023-12-04T09:15:05;4.00;84.50
29663;DHT22;16578;53.266;7.920;2023-12-04T09:17:31;4.00;84.50
29663;DHT22;16578;53.266;7.920;2023-12-04T09:19:57;4.10;84.50
29663;DHT22;16578;53.266;7.920;2023-12-04T09:22:22;4.10;84.50
29663;DHT22;16578;53.266;7.920;2023-12-04T09:24:48;4.10;84.40
29663;DHT22;16578;53.266;7.920;2023-12-04T09:27:14;4.10;84.40
29663;DHT22;16578;53.266;7.920;2023-12-04T09:29:40;4.10;84.20
29663;DHT22;16578;53.266;7.920;2023-12-04T09:32:06;4.10;84.10
29663;DHT22;16578;53.266;7.920;2023-12-04T09:34:32;4.10;84.10
29663;DHT22;16578;53.266;7.920;2023-12-04T09:36:57;4.10;84.00
29663;DHT22;16578;53.266;7.920;2023-12-04T09:39:23;4.10;84.00
29663;DHT22;16578;53.266;7.920;2023-12-04T09:41:49;4.20;84.10
29663;DHT22;16578;53.266;7.920;2023-12-04T09:44:16;4.20;84.00
29663;DHT22;16578;53.266;7.920;2023-12-04T09:46:42;4.20;84.00
29663;DHT22;16578;53.266;7.920;2023-12-04T09:49:08;4.20;84.00
29663;DHT22;16578;53.266;7.920;2023-12-04T09:51:34;4.20;84.10
29663;DHT22;16578;53.266;7.920;2023-12-04T09:54:02;4.20;84.00
29663;DHT22;16578;53.266;7.920;2023-12-04T09:56:30;4.20;84.00
29663;DHT22;16578;53.266;7.920;2023-12-04T09:58:59;4.30;83.90
29663;DHT22;16578;53.266;7.920;2023-12-04T10:01:29;4.20;83.70
29663;DHT22;16578;53.266;7.920;2023-12-04T10:03:56;4.30;83.90
29663;DHT22;16578;53.266;7.920;2023-12-04T10:06:26;4.30;83.80
29663;DHT22;16578;53.266;7.920;2023-12-04T10:08:51;4.30;83.90
29663;DHT22;16578;53.266;7.920;2023-12-04T10:11:17;4.30;83.80
29663;DHT22;16578;53.266;7.920;2023-12-04T10:13:42;4.30;83.70
29663;DHT22;16578;53.266;7.920;2023-12-04T10:16:08;4.30;83.60
29663;DHT22;16578;53.266;7.920;2023-12-04T10:18:34;4.30;83.50
29663;DHT22;16578;53.266;7.920;2023-12-04T10:21:00;4.40;83.60
29663;DHT22;16578;53.266;7.920;2023-12-04T10:23:38;4.40;83.60
29663;DHT22;16578;53.266;7.920;2023-12-04T10:26:04;4.40;83.40
29663;DHT22;16578;53.266;7.920;2023-12-04T10:28:30;4.40;83.40
29663;DHT22;16578;53.266;7.920;2023-12-04T10:30:55;4.40;83.30
29663;DHT22;16578;53.266;7.920;2023-12-04T10:33:25;4.40;83.30
29663;DHT22;16578;53.266;7.920;2023-12-04T10:35:52;4.40;83.30
29663;DHT22;16578;53.266;7.920;2023-12-04T10:38:18;4.40;83.20
29663;DHT22;16578;53.266;7.920;2023-12-04T10:40:44;4.40;83.10
29663;DHT22;16578;53.266;7.920;2023-12-04T10:43:18;4.40;82.90
29663;DHT22;16578;53.266;7.920;2023-12-04T10:45:46;4.40;83.00
29663;DHT22;16578;53.266;7.920;2023-12-04T10:48:13;4.40;83.00
29663;DHT22;16578;53.266;7.920;2023-12-04T10:50:44;4.40;82.80
29663;DHT22;16578;53.266;7.920;2023-12-04T10:53:11;4.50;82.90
29663;DHT22;16578;53.266;7.920;2023-12-04T10:55:39;4.50;82.90
29663;DHT22;16578;53.266;7.920;2023-12-04T10:58:09;4.50;82.80
29663;DHT22;16578;53.266;7.920;2023-12-04T11:00:38;4.50;82.80
29663;DHT22;16578;53.266;7.920;2023-12-04T11:03:07;4.50;82.60
29663;DHT22;16578;53.266;7.920;2023-12-04T11:05:39;4.50;82.50
29663;DHT22;16578;53.266;7.920;2023-12-04T11:08:07;4.50;82.30
29663;DHT22;16578;53.266;7.920;2023-12-04T11:10:51;4.50;82.30
29663;DHT22;16578;53.266;7.920;2023-12-04T11:13:34;4.50;82.40
29663;DHT22;16578;53.266;7.920;2023-12-04T11:16:07;4.50;82.20
29663;DHT22;16578;53.266;7.920;2023-12-04T11:18:37;4.60;82.40
29663;DHT22;16578;53.266;7.920;2023-12-04T11:21:08;4.60;82.40
29663;DHT22;16578;53.266;7.920;2023-12-04T11:23:35;4.60;82.60
29663;DHT22;16578;53.266;7.920;2023-12-04T11:26:01;4.60;82.30
29663;DHT22;16578;53.266;7.920;2023-12-04T11:28:30;4.60;82.20
29663;DHT22;16578;53.266;7.920;2023-12-04T11:30:57;4.70;82.30
29663;DHT22;16578;53.266;7.920;2023-12-04T11:33:23;4.70;82.20
29663;DHT22;16578;53.266;7.920;2023-12-04T11:35:50;4.70;82.00
29663;DHT22;16578;53.266;7.920;2023-12-04T11:38:17;4.70;82.10
29663;DHT22;16578;53.266;7.920;2023-12-04T11:40:42;4.70;81.90
29663;DHT22;16578;53.266;7.920;2023-12-04T11:43:25;4.70;81.60
29663;DHT22;16578;53.266;7.920;2023-12-04T11:45:50;4.70;81.50
29663;DHT22;16578;53.266;7.920;2023-12-04T11:48:16;4.80;81.70
29663;DHT22;16578;53.266;7.920;2023-12-04T11:50:45;4.80;81.60
29663;DHT22;16578;53.266;7.920;2023-12-04T11:53:11;4.80;81.30
29663;DHT22;16578;53.266;7.920;2023-12-04T11:55:40;4.80;81.20
29663;DHT22;16578;53.266;7.920;2023-12-04T11:58:11;4.80;81.20
29663;DHT22;16578;53.266;7.920;2023-12-04T12:00:37;4.80;80.90
29663;DHT22;16578;53.266;7.920;2023-12-04T12:03:07;4.80;81.00
29663;DHT22;16578;53.266;7.920;2023-12-04T12:05:36;4.80;80.90
29663;DHT22;16578;53.266;7.920;2023-12-04T12:08:04;4.90;81.90
29663;DHT22;16578;53.266;7.920;2023-12-04T12:10:30;4.90;80.90
29663;DHT22;16578;53.266;7.920;2023-12-04T12:12:56;4.90;80.50
29663;DHT22;16578;53.266;7.920;2023-12-04T12:15:22;4.90;80.50
29663;DHT22;16578;53.266;7.920;2023-12-04T12:17:49;4.90;80.90
29663;DHT22;16578;53.266;7.920;2023-12-04T12:20:15;4.90;80.90
29663;DHT22;16578;53.266;7.920;2023-12-04T12:22:41;4.90;80.70
29663;DHT22;16578;53.266;7.920;2023-12-04T12:25:10;4.90;80.60
29663;DHT22;16578;53.266;7.920;2023-12-04T12:27:36;4.90;80.70
29663;DHT22;16578;53.266;7.920;2023-12-04T12:30:03;4.90;80.60
29663;DHT22;16578;53.266;7.920;2023-12-04T12:32:31;4.90;80.50
29663;DHT22;16578;53.266;7.920;2023-12-04T12:34:56;5.00;80.50
29663;DHT22;16578;53.266;7.920;2023-12-04T12:37:22;5.00;80.60
29663;DHT22;16578;53.266;7.920;2023-12-04T12:39:48;5.00;80.30
29663;DHT22;16578;53.266;7.920;2023-12-04T12:42:40;5.00;80.40
29663;DHT22;16578;53.266;7.920;2023-12-04T12:45:10;5.00;80.00
29663;DHT22;16578;53.266;7.920;2023-12-04T12:47:37;5.00;80.40
29663;DHT22;16578;53.266;7.920;2023-12-04T12:50:03;5.00;80.30
29663;DHT22;16578;53.266;7.920;2023-12-04T12:52:29;5.00;80.30
29663;DHT22;16578;53.266;7.920;2023-12-04T12:54:55;5.00;79.90
29663;DHT22;16578;53.266;7.920;2023-12-04T12:57:20;5.00;80.00
29663;DHT22;16578;53.266;7.920;2023-12-04T12:59:46;5.00;80.00
29663;DHT22;16578;53.266;7.920;2023-12-04T13:02:12;5.00;79.80
29663;DHT22;16578;53.266;7.920;2023-12-04T13:04:39;5.00;79.80
29663;DHT22;16578;53.266;7.920;2023-12-04T13:07:05;5.00;79.80
29663;DHT22;16578;53.266;7.920;2023-12-04T13:09:32;5.00;79.80
29663;DHT22;16578;53.266;7.920;2023-12-04T13:11:58;5.00;79.90
29663;DHT22;16578;53.266;7.920;2023-12-04T13:14:25;5.00;79.60
29663;DHT22;16578;53.266;7.920;2023-12-04T13:16:50;5.00;79.60
29663;DHT22;16578;53.266;7.920;2023-12-04T13:19:16;5.10;79.40
29663;DHT22;16578;53.266;7.920;2023-12-04T13:21:43;5.00;80.30
29663;DHT22;16578;53.266;7.920;2023-12-04T13:24:09;5.00;79.60
29663;DHT22;16578;53.266;7.920;2023-12-04T13:26:35;5.00;79.40
29663;DHT22;16578;53.266;7.920;2023-12-04T13:29:01;5.10;79.50
29663;DHT22;16578;53.266;7.920;2023-12-04T13:31:27;5.00;79.40
29663;DHT22;16578;53.266;7.920;2023-12-04T13:33:55;5.10;79.40
29663;DHT22;16578;53.266;7.920;2023-12-04T13:36:21;5.00;79.30
29663;DHT22;16578;53.266;7.920;2023-12-04T13:38:46;5.00;79.30
29663;DHT22;16578;53.266;7.920;2023-12-04T13:41:12;5.00;79.40
29663;DHT22;16578;53.266;7.920;2023-12-04T13:43:56;5.10;79.10
29663;DHT22;16578;53.266;7.920;2023-12-04T13:46:25;5.00;79.10
29663;DHT22;16578;53.266;7.920;2023-12-04T13:48:52;5.00;78.60
29663;DHT22;16578;53.266;7.920;2023-12-04T13:51:18;5.10;79.30
29663;DHT22;16578;53.266;7.920;2023-12-04T13:53:45;5.10;79.30
29663;DHT22;16578;53.266;7.920;2023-12-04T13:56:14;5.10;79.40
29663;DHT22;16578;53.266;7.920;2023-12-04T13:58:46;5.10;79.30
29663;DHT22;16578;53.266;7.920;2023-12-04T14:01:14;5.10;79.20
29663;DHT22;16578;53.266;7.920;2023-12-04T14:03:43;5.10;79.20
29663;DHT22;16578;53.266;7.920;2023-12-04T14:06:09;5.00;78.60
29663;DHT22;16578;53.266;7.920;2023-12-04T14:08:35;5.10;78.90
29663;DHT22;16578;53.266;7.920;2023-12-04T14:11:05;5.10;78.60
29663;DHT22;16578;53.266;7.920;2023-12-04T14:13:32;5.10;78.60
29663;DHT22;16578;53.266;7.920;2023-12-04T14:15:58;5.10;78.60
29663;DHT22;16578;53.266;7.920;2023-12-04T14:18:23;5.10;78.60
29663;DHT22;16578;53.266;7.920;2023-12-04T14:20:49;5.10;78.40
29663;DHT22;16578;53.266;7.920;2023-12-04T14:23:16;5.10;78.40
29663;DHT22;16578;53.266;7.920;2023-12-04T14:25:44;5.10;78.60
29663;DHT22;16578;53.266;7.920;2023-12-04T14:28:10;5.10;78.20
29663;DHT22;16578;53.266;7.920;2023-12-04T14:30:35;5.10;78.20
29663;DHT22;16578;53.266;7.920;2023-12-04T14:33:01;5.10;78.50
29663;DHT22;16578;53.266;7.920;2023-12-04T14:35:26;5.10;78.40
29663;DHT22;16578;53.266;7.920;2023-12-04T14:37:52;5.10;78.30
29663;DHT22;16578;53.266;7.920;2023-12-04T14:40:18;5.10;78.30
29663;DHT22;16578;53.266;7.920;2023-12-04T14:42:45;5.10;78.20
29663;DHT22;16578;53.266;7.920;2023-12-04T14:45:11;5.10;78.30
29663;DHT22;16578;53.266;7.920;2023-12-04T14:47:37;5.10;78.30
29663;DHT22;16578;53.266;7.920;2023-12-04T14:50:04;5.10;78.20
29663;DHT22;16578;53.266;7.920;2023-12-04T14:52:29;5.00;78.00
29663;DHT22;16578;53.266;7.920;2023-12-04T14:54:57;5.00;78.00
29663;DHT22;16578;53.266;7.920;2023-12-04T14:57:35;5.00;78.10
29663;DHT22;16578;53.266;7.920;2023-12-04T15:00:08;5.00;78.00
29663;DHT22;16578;53.266;7.920;2023-12-04T15:02:33;5.00;78.10
29663;DHT22;16578;53.266;7.920;2023-12-04T15:05:18;5.00;77.60
29663;DHT22;16578;53.266;7.920;2023-12-04T15:08:09;5.00;77.80
29663;DHT22;16578;53.266;7.920;2023-12-04T15:11:10;5.00;77.90
29663;DHT22;16578;53.266;7.920;2023-12-04T15:13:36;4.90;78.00
29663;DHT22;16578;53.266;7.920;2023-12-04T15:16:10;4.90;77.90
29663;DHT22;16578;53.266;7.920;2023-12-04T15:18:39;4.90;77.70
29663;DHT22;16578;53.266;7.920;2023-12-04T15:21:30;4.90;77.40
29663;DHT22;16578;53.266;7.920;2023-12-04T15:23:56;4.80;77.80
29663;DHT22;16578;53.266;7.920;2023-12-04T15:26:22;4.90;77.90
29663;DHT22;16578;53.266;7.920;2023-12-04T15:28:48;4.80;77.60
29663;DHT22;16578;53.266;7.920;2023-12-04T15:31:14;4.80;78.60
29663;DHT22;16578;53.266;7.920;2023-12-04T15:33:40;4.80;77.60
29663;DHT22;16578;53.266;7.920;2023-12-04T15:36:05;4.80;77.70
29663;DHT22;16578;53.266;7.920;2023-12-04T15:38:34;4.80;77.80
29663;DHT22;16578;53.266;7.920;2023-12-04T15:40:59;4.70;77.00